sensor_id;sensor_type;location;lat;lon;timestamp;pressure;altitude;pressure_sealevel;temperature;humidity
68594;BME280;55563;52.416;13.548;2023-05-10T00:00:56;100814.34;;;11.49;100.00
68594;BME280;55563;52.416;13.548;2023-05-10T00:02:57;100810.94;;;11.49;100.00
68594;BME280;55563;52.416;13.548;2023-05-10T00:04:58;100811.16;;;11.42;100.00
68594;BME280;55563;52.416;13.548;2023-05-10T00:06:58;100810.94;;;11.49;100.00
68594;BME280;55563;52.416;13.548;2023-05-10T00:08:59;100804.31;;;11.36;100.00
68594;BME280;55563;52.416;13.548;2023-05-10T00:11:00;100809.59;;;11.36;100.00
68594;BME280;55563;52.416;13.548;2023-05-10T00:13:01;100816.41;;;11.32;100.00
68594;BME280;55563;52.416;13.548;2023-05-10T00:15:02;100810.06;;;11.23;100.00
68594;BME280;55563;52.416;13.548;2023-05-10T00:17:04;100802.16;;;11.23;100.00
68594;BME280;55563;52.416;13.548;2023-05-10T00:19:05;100807.69;;;11.21;100.00
68594;BME280;55563;52.416;13.548;2023-05-10T00:21:06;100801.34;;;11.12;100.00
68594;BME280;55563;52.416;13.548;2023-05-10T00:23:06;100801.59;;;11.06;100.00
68594;BME280;55563;52.416;13.548;2023-05-10T00:25:08;100799.97;;;11.00;100.00
68594;BME280;55563;52.416;13.548;2023-05-10T00:27:09;100793.41;;;11.02;100.00
68594;BME280;55563;52.416;13.548;2023-05-10T00:29:10;100789.19;;;10.96;100.00
68594;BME280;55563;52.416;13.548;2023-05-10T00:31:10;100788.09;;;10.87;100.00
68594;BME280;55563;52.416;13.548;2023-05-10T00:33:11;100786.50;;;10.86;100.00
68594;BME280;55563;52.416;13.548;2023-05-10T00:35:12;100780.19;;;10.87;100.00
68594;BME280;55563;52.416;13.548;2023-05-10T00:37:13;100785.72;;;10.85;100.00
68594;BME280;55563;52.416;13.548;2023-05-10T00:39:14;100781.22;;;10.81;100.00
68594;BME280;55563;52.416;13.548;2023-05-10T00:41:14;100782.25;;;10.80;100.00
68594;BME280;55563;52.416;13.548;2023-05-10T00:43:16;100780.91;;;10.72;100.00
68594;BME280;55563;52.416;13.548;2023-05-10T00:45:17;100780.66;;;10.69;100.00
68594;BME280;55563;52.416;13.548;2023-05-10T00:47:18;100771.94;;;10.63;100.00
68594;BME280;55563;52.416;13.548;2023-05-10T00:49:19;100767.47;;;10.64;100.00
68594;BME280;55563;52.416;13.548;2023-05-10T00:51:21;100774.00;;;10.61;100.00
68594;BME280;55563;52.416;13.548;2023-05-10T00:53:22;100769.28;;;10.58;100.00
68594;BME280;55563;52.416;13.548;2023-05-10T00:55:23;100767.69;;;10.57;100.00
68594;BME280;55563;52.416;13.548;2023-05-10T00:57:24;100763.47;;;10.56;100.00
68594;BME280;55563;52.416;13.548;2023-05-10T00:59:25;100759.84;;;10.62;100.00
68594;BME280;55563;52.416;13.548;2023-05-10T01:01:26;100765.34;;;10.61;100.00
68594;BME280;55563;52.416;13.548;2023-05-10T01:03:28;100762.16;;;10.54;100.00
68594;BME280;55563;52.416;13.548;2023-05-10T01:05:29;100758.19;;;10.51;100.00
68594;BME280;55563;52.416;13.548;2023-05-10T01:07:31;100761.88;;;10.50;100.00
68594;BME280;55563;52.416;13.548;2023-05-10T01:09:33;100756.63;;;10.50;100.00
68594;BME280;55563;52.416;13.548;2023-05-10T01:11:35;100758.44;;;10.44;100.00
68594;BME280;55563;52.416;13.548;2023-05-10T01:13:38;100750.53;;;10.44;100.00
68594;BME280;55563;52.416;13.548;2023-05-10T01:15:39;100753.63;;;10.36;100.00
68594;BME280;55563;52.416;13.548;2023-05-10T01:17:44;100753.91;;;10.35;100.00
68594;BME280;55563;52.416;13.548;2023-05-10T01:19:45;100749.44;;;10.35;100.00
68594;BME280;55563;52.416;13.548;2023-05-10T01:32:04;100738.88;;;10.25;100.00
68594;BME280;55563;52.416;13.548;2023-05-10T01:34:16;100742.50;;;10.19;100.00
68594;BME280;55563;52.416;13.548;2023-05-10T01:36:43;100748.53;;;10.20;100.00
68594;BME280;55563;52.416;13.548;2023-05-10T01:38:50;100734.34;;;10.16;100.00
68594;BME280;55563;52.416;13.548;2023-05-10T01:41:12;100745.63;;;10.16;100.00
68594;BME280;55563;52.416;13.548;2023-05-10T01:43:22;100739.53;;;10.11;100.00
68594;BME280;55563;52.416;13.548;2023-05-10T01:45:50;100733.44;;;10.05;100.00
68594;BME280;55563;52.416;13.548;2023-05-10T01:48:09;100737.66;;;10.06;100.00
68594;BME280;55563;52.416;13.548;2023-05-10T01:50:16;100736.06;;;10.05;100.00
68594;BME280;55563;52.416;13.548;2023-05-10T01:52:19;100736.28;;;9.98;100.00
68594;BME280;55563;52.416;13.548;2023-05-10T01:54:24;100735.75;;;9.96;100.00
68594;BME280;55563;52.416;13.548;2023-05-10T01:56:26;100734.94;;;9.96;100.00
68594;BME280;55563;52.416;13.548;2023-05-10T01:58:30;100728.81;;;9.85;100.00
68594;BME280;55563;52.416;13.548;2023-05-10T02:00:33;100728.13;;;9.95;100.00
68594;BME280;55563;52.416;13.548;2023-05-10T02:02:40;100730.47;;;9.91;100.00
68594;BME280;55563;52.416;13.548;2023-05-10T02:04:43;100728.59;;;9.87;100.00
68594;BME280;55563;52.416;13.548;2023-05-10T02:06:45;100727.25;;;9.84;100.00
68594;BME280;55563;52.416;13.548;2023-05-10T02:08:49;100727.47;;;9.78;100.00
68594;BME280;55563;52.416;13.548;2023-05-10T02:10:54;100729.78;;;9.74;100.00
68594;BME280;55563;52.416;13.548;2023-05-10T02:12:58;100730.78;;;9.68;100.00
68594;BME280;55563;52.416;13.548;2023-05-10T02:15:04;100730.19;;;9.61;100.00
68594;BME280;55563;52.416;13.548;2023-05-10T02:17:07;100728.59;;;9.60;100.00
68594;BME280;55563;52.416;13.548;2023-05-10T02:19:11;100731.19;;;9.55;100.00
68594;BME280;55563;52.416;13.548;2023-05-10T02:21:13;100726.22;;;9.53;100.00
68594;BME280;55563;52.416;13.548;2023-05-10T02:23:16;100723.81;;;9.52;100.00
68594;BME280;55563;52.416;13.548;2023-05-10T02:25:19;100720.44;;;9.56;100.00
68594;BME280;55563;52.416;13.548;2023-05-10T02:27:23;100707.53;;;9.50;100.00
68594;BME280;55563;52.416;13.548;2023-05-10T02:29:25;100722.75;;;9.48;100.00
68594;BME280;55563;52.416;13.548;2023-05-10T02:31:30;100723.22;;;9.45;100.00
68594;BME280;55563;52.416;13.548;2023-05-10T02:33:33;100720.59;;;9.45;100.00
68594;BME280;55563;52.416;13.548;2023-05-10T02:35:35;100714.81;;;9.43;100.00
68594;BME280;55563;52.416;13.548;2023-05-10T02:37:37;100718.44;;;9.37;100.00
68594;BME280;55563;52.416;13.548;2023-05-10T02:39:39;100717.84;;;9.30;100.00
68594;BME280;55563;52.416;13.548;2023-05-10T02:41:45;100718.47;;;9.42;100.00
68594;BME280;55563;52.416;13.548;2023-05-10T02:43:50;100717.16;;;9.39;100.00
68594;BME280;55563;52.416;13.548;2023-05-10T02:45:52;100710.78;;;9.30;100.00
68594;BME280;55563;52.416;13.548;2023-05-10T02:47:53;100719.72;;;9.34;100.00
68594;BME280;55563;52.416;13.548;2023-05-10T02:49:55;100721.03;;;9.37;100.00
68594;BME280;55563;52.416;13.548;2023-05-10T02:51:58;100719.69;;;9.29;100.00
68594;BME280;55563;52.416;13.548;2023-05-10T02:54:06;100711.00;;;9.29;100.00
68594;BME280;55563;52.416;13.548;2023-05-10T02:56:15;100713.88;;;9.27;100.00
68594;BME280;55563;52.416;13.548;2023-05-10T02:59:22;100718.81;;;9.24;100.00
68594;BME280;55563;52.416;13.548;2023-05-10T03:01:29;100714.84;;;9.21;100.00
68594;BME280;55563;52.416;13.548;2023-05-10T03:03:32;100714.63;;;9.23;100.00
68594;BME280;55563;52.416;13.548;2023-05-10T03:05:33;100717.47;;;9.21;100.00
68594;BME280;55563;52.416;13.548;2023-05-10T03:07:39;100714.28;;;9.14;100.00
68594;BME280;55563;52.416;13.548;2023-05-10T03:09:40;100711.88;;;9.12;100.00
68594;BME280;55563;52.416;13.548;2023-05-10T03:11:59;100708.69;;;9.05;100.00
68594;BME280;55563;52.416;13.548;2023-05-10T03:14:42;100713.56;;;8.97;100.00
68594;BME280;55563;52.416;13.548;2023-05-10T03:16:47;100708.34;;;9.02;100.00
68594;BME280;55563;52.416;13.548;2023-05-10T03:19:06;100706.78;;;9.01;100.00
68594;BME280;55563;52.416;13.548;2023-05-10T03:21:13;100707.53;;;8.96;100.00
68594;BME280;55563;52.416;13.548;2023-05-10T03:25:29;100712.91;;;9.11;100.00
68594;BME280;55563;52.416;13.548;2023-05-10T03:27:32;100718.16;;;9.11;100.00
68594;BME280;55563;52.416;13.548;2023-05-10T03:29:35;100719.41;;;9.04;100.00
68594;BME280;55563;52.416;13.548;2023-05-10T03:31:38;100705.50;;;9.03;100.00
68594;BME280;55563;52.416;13.548;2023-05-10T03:33:47;100714.72;;;9.06;100.00
68594;BME280;55563;52.416;13.548;2023-05-10T03:35:50;100703.91;;;9.02;100.00
68594;BME280;55563;52.416;13.548;2023-05-10T03:37:51;100707.88;;;9.05;100.00
68594;BME280;55563;52.416;13.548;2023-05-10T03:39:52;100705.50;;;9.03;100.00
68594;BME280;55563;52.416;13.548;2023-05-10T03:41:53;100701.06;;;9.04;100.00
68594;BME280;55563;52.416;13.548;2023-05-10T03:43:54;100706.06;;;9.05;100.00
68594;BME280;55563;52.416;13.548;2023-05-10T03:45:55;100703.44;;;9.05;100.00
68594;BME280;55563;52.416;13.548;2023-05-10T03:47:57;100709.03;;;9.14;100.00
68594;BME280;55563;52.416;13.548;2023-05-10T03:49:58;100705.72;;;9.24;100.00
68594;BME280;55563;52.416;13.548;2023-05-10T03:51:59;100710.06;;;9.40;100.00
68594;BME280;55563;52.416;13.548;2023-05-10T03:54:00;100707.97;;;9.69;100.00
68594;BME280;55563;52.416;13.548;2023-05-10T03:56:02;100706.56;;;10.87;100.00
68594;BME280;55563;52.416;13.548;2023-05-10T03:58:03;100694.50;;;10.96;100.00
68594;BME280;55563;52.416;13.548;2023-05-10T04:00:04;100710.41;;;11.97;100.00
68594;BME280;55563;52.416;13.548;2023-05-10T04:02:28;100703.78;;;12.99;100.00
68594;BME280;55563;52.416;13.548;2023-05-10T04:04:30;100697.53;;;15.30;83.85
68594;BME280;55563;52.416;13.548;2023-05-10T04:06:31;100705.72;;;14.24;86.13
68594;BME280;55563;52.416;13.548;2023-05-10T04:08:32;100696.94;;;12.93;94.72
68594;BME280;55563;52.416;13.548;2023-05-10T04:10:32;100705.81;;;13.13;97.63
68594;BME280;55563;52.416;13.548;2023-05-10T04:12:33;100707.38;;;15.61;80.02
68594;BME280;55563;52.416;13.548;2023-05-10T04:14:34;100697.44;;;17.31;64.97
68594;BME280;55563;52.416;13.548;2023-05-10T04:16:34;100704.34;;;17.76;60.57
68594;BME280;55563;52.416;13.548;2023-05-10T04:18:35;100695.69;;;18.98;54.17
68594;BME280;55563;52.416;13.548;2023-05-10T04:20:36;100696.50;;;18.02;56.14
68594;BME280;55563;52.416;13.548;2023-05-10T04:22:37;100694.66;;;18.11;55.62
68594;BME280;55563;52.416;13.548;2023-05-10T04:24:37;100695.53;;;19.11;53.10
68594;BME280;55563;52.416;13.548;2023-05-10T04:26:38;100693.69;;;18.47;53.34
68594;BME280;55563;52.416;13.548;2023-05-10T04:28:39;100690.03;;;18.25;52.74
68594;BME280;55563;52.416;13.548;2023-05-10T04:30:39;100689.56;;;17.62;54.23
68594;BME280;55563;52.416;13.548;2023-05-10T04:32:40;100685.50;;;18.26;53.92
68594;BME280;55563;52.416;13.548;2023-05-10T04:34:41;100686.72;;;18.20;53.34
68594;BME280;55563;52.416;13.548;2023-05-10T04:36:42;100686.16;;;18.01;52.78
68594;BME280;55563;52.416;13.548;2023-05-10T04:38:43;100691.00;;;18.38;52.29
68594;BME280;55563;52.416;13.548;2023-05-10T04:40:44;100690.47;;;18.19;51.77
68594;BME280;55563;52.416;13.548;2023-05-10T04:42:44;100683.50;;;20.03;48.36
68594;BME280;55563;52.416;13.548;2023-05-10T04:44:45;100687.78;;;21.05;46.01
68594;BME280;55563;52.416;13.548;2023-05-10T04:46:46;100690.06;;;19.51;48.74
68594;BME280;55563;52.416;13.548;2023-05-10T04:48:47;100690.00;;;19.85;47.52
68594;BME280;55563;52.416;13.548;2023-05-10T04:50:48;100682.72;;;21.45;45.01
68594;BME280;55563;52.416;13.548;2023-05-10T04:52:48;100687.31;;;19.77;46.92
68594;BME280;55563;52.416;13.548;2023-05-10T04:54:49;100678.97;;;22.64;43.22
68594;BME280;55563;52.416;13.548;2023-05-10T04:56:50;100683.66;;;22.18;42.36
68594;BME280;55563;52.416;13.548;2023-05-10T04:58:50;100672.09;;;20.32;44.66
68594;BME280;55563;52.416;13.548;2023-05-10T05:00:51;100672.16;;;22.54;42.33
68594;BME280;55563;52.416;13.548;2023-05-10T05:02:51;100673.97;;;21.56;44.24
68594;BME280;55563;52.416;13.548;2023-05-10T05:04:52;100668.16;;;23.56;40.06
68594;BME280;55563;52.416;13.548;2023-05-10T05:06:53;100669.72;;;23.57;39.73
68594;BME280;55563;52.416;13.548;2023-05-10T05:08:54;100673.91;;;23.42;40.29
68594;BME280;55563;52.416;13.548;2023-05-10T05:10:55;100677.13;;;21.70;41.93
68594;BME280;55563;52.416;13.548;2023-05-10T05:12:56;100678.03;;;22.59;40.83
68594;BME280;55563;52.416;13.548;2023-05-10T05:14:58;100678.16;;;24.18;39.49
68594;BME280;55563;52.416;13.548;2023-05-10T05:17:04;100678.19;;;22.51;40.40
68594;BME280;55563;52.416;13.548;2023-05-10T05:19:05;100670.41;;;24.67;38.97
68594;BME280;55563;52.416;13.548;2023-05-10T05:21:16;100668.91;;;22.60;41.63
68594;BME280;55563;52.416;13.548;2023-05-10T05:23:17;100678.41;;;21.52;43.01
68594;BME280;55563;52.416;13.548;2023-05-10T05:25:19;100680.44;;;22.49;42.18
68594;BME280;55563;52.416;13.548;2023-05-10T05:27:20;100673.28;;;23.92;38.51
68594;BME280;55563;52.416;13.548;2023-05-10T05:29:24;100672.81;;;22.75;40.59
68594;BME280;55563;52.416;13.548;2023-05-10T05:31:26;100669.03;;;24.22;37.58
68594;BME280;55563;52.416;13.548;2023-05-10T05:33:27;100669.63;;;24.66;38.53
68594;BME280;55563;52.416;13.548;2023-05-10T05:35:28;100670.66;;;25.35;36.66
68594;BME280;55563;52.416;13.548;2023-05-10T05:37:28;100663.25;;;25.51;36.04
68594;BME280;55563;52.416;13.548;2023-05-10T05:39:29;100668.84;;;25.43;36.26
68594;BME280;55563;52.416;13.548;2023-05-10T05:41:30;100668.47;;;26.62;34.70
68594;BME280;55563;52.416;13.548;2023-05-10T05:43:30;100667.16;;;28.40;33.20
68594;BME280;55563;52.416;13.548;2023-05-10T05:45:31;100663.53;;;25.04;36.38
68594;BME280;55563;52.416;13.548;2023-05-10T05:47:32;100666.72;;;25.10;36.43
68594;BME280;55563;52.416;13.548;2023-05-10T05:49:32;100659.44;;;24.91;37.06
68594;BME280;55563;52.416;13.548;2023-05-10T05:51:33;100663.41;;;24.12;36.77
68594;BME280;55563;52.416;13.548;2023-05-10T05:53:35;100662.84;;;25.49;36.69
68594;BME280;55563;52.416;13.548;2023-05-10T05:55:35;100655.66;;;24.96;36.38
68594;BME280;55563;52.416;13.548;2023-05-10T05:57:36;100660.31;;;26.05;34.83
68594;BME280;55563;52.416;13.548;2023-05-10T05:59:37;100659.16;;;26.85;33.63
68594;BME280;55563;52.416;13.548;2023-05-10T06:01:42;100670.09;;;25.91;34.30
68594;BME280;55563;52.416;13.548;2023-05-10T06:03:42;100660.47;;;26.99;33.38
68594;BME280;55563;52.416;13.548;2023-05-10T06:05:43;100650.56;;;28.45;32.00
68594;BME280;55563;52.416;13.548;2023-05-10T06:07:44;100660.47;;;28.20;32.60
68594;BME280;55563;52.416;13.548;2023-05-10T06:09:45;100661.25;;;29.03;31.49
68594;BME280;55563;52.416;13.548;2023-05-10T06:11:45;100656.00;;;29.64;31.51
68594;BME280;55563;52.416;13.548;2023-05-10T06:13:47;100665.97;;;28.38;31.33
68594;BME280;55563;52.416;13.548;2023-05-10T06:15:48;100666.06;;;28.59;31.91
68594;BME280;55563;52.416;13.548;2023-05-10T06:17:48;100669.31;;;27.69;32.82
68594;BME280;55563;52.416;13.548;2023-05-10T06:19:50;100666.03;;;27.13;32.67
68594;BME280;55563;52.416;13.548;2023-05-10T06:21:50;100664.97;;;27.58;32.21
68594;BME280;55563;52.416;13.548;2023-05-10T06:23:51;100656.72;;;25.30;34.89
68594;BME280;55563;52.416;13.548;2023-05-10T06:25:52;100667.91;;;28.34;32.17
68594;BME280;55563;52.416;13.548;2023-05-10T06:27:54;100665.22;;;28.37;31.60
68594;BME280;55563;52.416;13.548;2023-05-10T06:29:58;100675.13;;;27.34;32.89
68594;BME280;55563;52.416;13.548;2023-05-10T06:31:58;100661.38;;;28.42;30.91
68594;BME280;55563;52.416;13.548;2023-05-10T06:33:59;100665.53;;;29.04;31.23
68594;BME280;55563;52.416;13.548;2023-05-10T06:35:59;100667.41;;;25.26;34.69
68594;BME280;55563;52.416;13.548;2023-05-10T06:38:00;100663.41;;;25.81;35.46
68594;BME280;55563;52.416;13.548;2023-05-10T06:40:01;100662.38;;;28.85;31.91
68594;BME280;55563;52.416;13.548;2023-05-10T06:42:02;100658.72;;;28.49;31.94
68594;BME280;55563;52.416;13.548;2023-05-10T06:44:06;100659.00;;;30.44;30.97
68594;BME280;55563;52.416;13.548;2023-05-10T06:46:07;100659.44;;;27.47;31.94
68594;BME280;55563;52.416;13.548;2023-05-10T06:48:08;100662.56;;;26.82;33.00
68594;BME280;55563;52.416;13.548;2023-05-10T06:50:09;100652.41;;;29.14;31.17
68594;BME280;55563;52.416;13.548;2023-05-10T06:52:10;100660.97;;;29.33;30.69
68594;BME280;55563;52.416;13.548;2023-05-10T06:54:10;100668.56;;;25.06;35.31
68594;BME280;55563;52.416;13.548;2023-05-10T06:56:11;100664.81;;;26.47;35.04
68594;BME280;55563;52.416;13.548;2023-05-10T06:58:12;100649.00;;;29.45;30.92
68594;BME280;55563;52.416;13.548;2023-05-10T07:00:13;100656.31;;;28.33;32.55
68594;BME280;55563;52.416;13.548;2023-05-10T07:02:14;100659.78;;;26.45;34.13
68594;BME280;55563;52.416;13.548;2023-05-10T07:04:15;100657.53;;;29.72;31.17
68594;BME280;55563;52.416;13.548;2023-05-10T07:06:16;100647.75;;;27.36;33.44
68594;BME280;55563;52.416;13.548;2023-05-10T07:08:16;100652.22;;;27.18;33.26
68594;BME280;55563;52.416;13.548;2023-05-10T07:10:18;100648.84;;;27.68;32.94
68594;BME280;55563;52.416;13.548;2023-05-10T07:12:19;100660.44;;;28.92;31.74
68594;BME280;55563;52.416;13.548;2023-05-10T07:16:04;100651.91;;;28.83;31.20
68594;BME280;55563;52.416;13.548;2023-05-10T07:17:40;100650.47;;;28.24;33.05
68594;BME280;55563;52.416;13.548;2023-05-10T07:19:41;100650.28;;;26.29;34.26
68594;BME280;55563;52.416;13.548;2023-05-10T07:21:41;100649.25;;;27.67;33.55
68594;BME280;55563;52.416;13.548;2023-05-10T07:23:43;100651.06;;;28.07;32.94
68594;BME280;55563;52.416;13.548;2023-05-10T07:25:45;100649.19;;;28.11;32.54
68594;BME280;55563;52.416;13.548;2023-05-10T07:27:46;100643.75;;;27.56;33.11
68594;BME280;55563;52.416;13.548;2023-05-10T07:29:48;100645.03;;;27.73;32.94
68594;BME280;55563;52.416;13.548;2023-05-10T07:31:49;100656.53;;;26.10;35.71
68594;BME280;55563;52.416;13.548;2023-05-10T07:33:50;100654.06;;;26.80;33.75
68594;BME280;55563;52.416;13.548;2023-05-10T07:35:50;100642.16;;;25.76;35.85
68594;BME280;55563;52.416;13.548;2023-05-10T07:37:51;100651.56;;;25.63;36.06
68594;BME280;55563;52.416;13.548;2023-05-10T07:39:52;100652.06;;;24.18;38.36
68594;BME280;55563;52.416;13.548;2023-05-10T07:41:53;100647.38;;;22.45;40.69
68594;BME280;55563;52.416;13.548;2023-05-10T07:43:54;100654.44;;;22.13;42.28
68594;BME280;55563;52.416;13.548;2023-05-10T07:45:54;100656.50;;;21.83;42.80
68594;BME280;55563;52.416;13.548;2023-05-10T07:47:55;100645.97;;;21.99;43.28
68594;BME280;55563;52.416;13.548;2023-05-10T07:49:56;100650.28;;;22.40;41.36
68594;BME280;55563;52.416;13.548;2023-05-10T07:51:56;100645.19;;;22.87;42.08
68594;BME280;55563;52.416;13.548;2023-05-10T07:54:00;100647.16;;;21.77;43.38
68594;BME280;55563;52.416;13.548;2023-05-10T07:56:27;100649.81;;;22.50;43.07
68594;BME280;55563;52.416;13.548;2023-05-10T07:58:29;100645.25;;;21.90;45.50
68594;BME280;55563;52.416;13.548;2023-05-10T08:00:30;100644.22;;;21.70;44.37
68594;BME280;55563;52.416;13.548;2023-05-10T08:02:31;100648.25;;;21.88;44.36
68594;BME280;55563;52.416;13.548;2023-05-10T08:04:31;100640.22;;;21.19;46.48
68594;BME280;55563;52.416;13.548;2023-05-10T08:06:32;100638.03;;;21.12;46.11
68594;BME280;55563;52.416;13.548;2023-05-10T08:08:33;100648.06;;;21.36;46.50
68594;BME280;55563;52.416;13.548;2023-05-10T08:10:33;100648.56;;;21.62;44.64
68594;BME280;55563;52.416;13.548;2023-05-10T08:12:34;100652.38;;;21.73;45.48
68594;BME280;55563;52.416;13.548;2023-05-10T08:14:37;100644.91;;;21.67;46.29
68594;BME280;55563;52.416;13.548;2023-05-10T08:16:38;100655.69;;;21.58;46.76
68594;BME280;55563;52.416;13.548;2023-05-10T08:18:39;100651.19;;;21.38;46.59
68594;BME280;55563;52.416;13.548;2023-05-10T08:20:40;100639.94;;;21.45;45.82
68594;BME280;55563;52.416;13.548;2023-05-10T08:22:40;100647.75;;;21.50;45.77
68594;BME280;55563;52.416;13.548;2023-05-10T08:24:41;100646.75;;;21.54;46.91
68594;BME280;55563;52.416;13.548;2023-05-10T08:26:42;100648.41;;;21.47;47.58
68594;BME280;55563;52.416;13.548;2023-05-10T08:28:42;100647.03;;;21.28;46.57
68594;BME280;55563;52.416;13.548;2023-05-10T08:30:43;100641.66;;;21.73;47.13
68594;BME280;55563;52.416;13.548;2023-05-10T08:32:44;100640.91;;;21.85;46.13
68594;BME280;55563;52.416;13.548;2023-05-10T08:34:44;100641.78;;;20.78;46.60
68594;BME280;55563;52.416;13.548;2023-05-10T08:36:45;100641.81;;;21.32;46.15
68594;BME280;55563;52.416;13.548;2023-05-10T08:38:45;100645.75;;;21.14;46.65
68594;BME280;55563;52.416;13.548;2023-05-10T08:40:49;100641.22;;;21.26;45.98
68594;BME280;55563;52.416;13.548;2023-05-10T08:43:27;100647.47;;;21.30;48.79
68594;BME280;55563;52.416;13.548;2023-05-10T08:45:31;100652.19;;;21.46;47.44
68594;BME280;55563;52.416;13.548;2023-05-10T08:47:36;100643.13;;;20.43;50.31
68594;BME280;55563;52.416;13.548;2023-05-10T08:49:38;100649.56;;;21.25;48.57
68594;BME280;55563;52.416;13.548;2023-05-10T08:51:40;100641.97;;;20.53;49.02
68594;BME280;55563;52.416;13.548;2023-05-10T08:53:45;100647.16;;;21.11;49.18
68594;BME280;55563;52.416;13.548;2023-05-10T08:55:46;100648.53;;;21.50;47.63
68594;BME280;55563;52.416;13.548;2023-05-10T08:57:47;100645.47;;;21.72;49.36
68594;BME280;55563;52.416;13.548;2023-05-10T08:59:47;100645.47;;;20.65;48.26
68594;BME280;55563;52.416;13.548;2023-05-10T09:01:49;100653.88;;;21.38;49.80
68594;BME280;55563;52.416;13.548;2023-05-10T09:03:50;100651.38;;;21.78;48.17
68594;BME280;55563;52.416;13.548;2023-05-10T09:05:53;100653.22;;;21.20;47.31
68594;BME280;55563;52.416;13.548;2023-05-10T09:07:53;100642.84;;;19.34;50.04
68594;BME280;55563;52.416;13.548;2023-05-10T09:09:57;100649.09;;;20.02;51.72
68594;BME280;55563;52.416;13.548;2023-05-10T09:11:58;100652.09;;;20.00;50.54
68594;BME280;55563;52.416;13.548;2023-05-10T09:13:59;100654.03;;;20.21;52.38
68594;BME280;55563;52.416;13.548;2023-05-10T09:16:00;100646.56;;;21.06;51.25
68594;BME280;55563;52.416;13.548;2023-05-10T09:18:01;100646.75;;;21.42;50.35
68594;BME280;55563;52.416;13.548;2023-05-10T09:20:03;100653.28;;;21.90;50.72
68594;BME280;55563;52.416;13.548;2023-05-10T09:22:04;100649.97;;;22.17;49.98
68594;BME280;55563;52.416;13.548;2023-05-10T09:24:06;100654.66;;;22.08;48.69
68594;BME280;55563;52.416;13.548;2023-05-10T09:26:08;100650.09;;;20.98;48.33
68594;BME280;55563;52.416;13.548;2023-05-10T09:28:08;100652.38;;;20.87;49.20
68594;BME280;55563;52.416;13.548;2023-05-10T09:30:10;100652.09;;;20.38;49.76
68594;BME280;55563;52.416;13.548;2023-05-10T09:32:10;100660.44;;;19.90;50.18
68594;BME280;55563;52.416;13.548;2023-05-10T09:34:11;100649.63;;;20.25;50.79
68594;BME280;55563;52.416;13.548;2023-05-10T09:36:15;100659.16;;;20.43;51.74
68594;BME280;55563;52.416;13.548;2023-05-10T09:38:16;100650.38;;;21.05;51.87
68594;BME280;55563;52.416;13.548;2023-05-10T09:40:19;100656.28;;;21.76;50.99
68594;BME280;55563;52.416;13.548;2023-05-10T09:42:22;100652.09;;;21.99;48.65
68594;BME280;55563;52.416;13.548;2023-05-10T09:44:25;100650.09;;;21.96;49.96
68594;BME280;55563;52.416;13.548;2023-05-10T09:46:26;100650.91;;;21.64;49.63
68594;BME280;55563;52.416;13.548;2023-05-10T09:48:27;100650.09;;;22.08;48.74
68594;BME280;55563;52.416;13.548;2023-05-10T09:50:28;100657.84;;;21.77;48.76
68594;BME280;55563;52.416;13.548;2023-05-10T09:52:46;100649.97;;;22.17;48.29
68594;BME280;55563;52.416;13.548;2023-05-10T09:54:53;100653.78;;;22.28;48.56
68594;BME280;55563;52.416;13.548;2023-05-10T09:56:54;100651.78;;;22.25;47.39
68594;BME280;55563;52.416;13.548;2023-05-10T09:59:02;100656.09;;;22.54;48.55
68594;BME280;55563;52.416;13.548;2023-05-10T10:01:03;100653.22;;;21.98;46.53
68594;BME280;55563;52.416;13.548;2023-05-10T10:03:03;100659.44;;;21.90;47.51
68594;BME280;55563;52.416;13.548;2023-05-10T10:05:06;100655.13;;;22.10;47.52
68594;BME280;55563;52.416;13.548;2023-05-10T10:07:07;100645.13;;;22.59;46.09
68594;BME280;55563;52.416;13.548;2023-05-10T10:09:08;100645.75;;;22.92;45.35
68594;BME280;55563;52.416;13.548;2023-05-10T10:11:09;100642.13;;;22.73;45.80
68594;BME280;55563;52.416;13.548;2023-05-10T10:13:10;100640.97;;;22.86;45.86
68594;BME280;55563;52.416;13.548;2023-05-10T10:15:11;100645.28;;;23.18;46.61
68594;BME280;55563;52.416;13.548;2023-05-10T10:17:12;100652.22;;;22.91;44.63
68594;BME280;55563;52.416;13.548;2023-05-10T10:19:13;100628.81;;;23.04;45.30
68594;BME280;55563;52.416;13.548;2023-05-10T10:21:14;100649.88;;;23.18;44.98
68594;BME280;55563;52.416;13.548;2023-05-10T10:23:15;100646.91;;;23.35;46.22
68594;BME280;55563;52.416;13.548;2023-05-10T10:25:16;100641.41;;;23.31;44.97
68594;BME280;55563;52.416;13.548;2023-05-10T10:27:33;100640.34;;;21.80;45.00
68594;BME280;55563;52.416;13.548;2023-05-10T10:29:59;100643.47;;;21.82;46.04
68594;BME280;55563;52.416;13.548;2023-05-10T10:32:20;100649.19;;;22.29;46.41
68594;BME280;55563;52.416;13.548;2023-05-10T10:34:27;100641.44;;;21.79;45.82
68594;BME280;55563;52.416;13.548;2023-05-10T10:36:28;100637.34;;;21.81;46.59
68594;BME280;55563;52.416;13.548;2023-05-10T10:41:02;100633.00;;;21.77;46.50
68594;BME280;55563;52.416;13.548;2023-05-10T10:43:24;100628.22;;;21.94;46.31
68594;BME280;55563;52.416;13.548;2023-05-10T10:45:25;100633.66;;;22.58;48.43
68594;BME280;55563;52.416;13.548;2023-05-10T10:47:28;100641.28;;;22.08;46.89
68594;BME280;55563;52.416;13.548;2023-05-10T10:49:32;100637.34;;;21.36;47.27